sensor_id;sensor_type;location;lat;lon;timestamp;pressure;altitude;pressure_sealevel;temperature;humidity
49102;BME280;34913;47.520;19.186;2023-09-19T00:01:39;99371.31;;;22.63;61.20
49102;BME280;34913;47.520;19.186;2023-09-19T00:04:05;99371.09;;;22.65;61.25
49102;BME280;34913;47.520;19.186;2023-09-19T00:06:36;99373.44;;;22.61;61.08
49102;BME280;34913;47.520;19.186;2023-09-19T00:09:02;99371.16;;;22.58;61.04
49102;BME280;34913;47.520;19.186;2023-09-19T00:11:28;99375.94;;;22.56;61.60
49102;BME280;34913;47.520;19.186;2023-09-19T00:13:54;99372.88;;;22.52;61.64
49102;BME280;34913;47.520;19.186;2023-09-19T00:16:20;99375.13;;;22.55;61.60
49102;BME280;34913;47.520;19.186;2023-09-19T00:18:45;99372.47;;;22.49;61.59
49102;BME280;34913;47.520;19.186;2023-09-19T00:21:11;99370.63;;;22.43;62.04
49102;BME280;34913;47.520;19.186;2023-09-19T00:23:38;99367.78;;;22.38;62.25
49102;BME280;34913;47.520;19.186;2023-09-19T00:26:03;99368.75;;;22.43;62.24
49102;BME280;34913;47.520;19.186;2023-09-19T00:28:29;99360.25;;;22.40;62.22
49102;BME280;34913;47.520;19.186;2023-09-19T00:30:55;99359.00;;;22.42;62.33
49102;BME280;34913;47.520;19.186;2023-09-19T00:33:21;99364.84;;;22.39;62.15
49102;BME280;34913;47.520;19.186;2023-09-19T00:35:57;99362.19;;;22.33;62.45
49102;BME280;34913;47.520;19.186;2023-09-19T00:38:23;99364.28;;;22.31;62.96
49102;BME280;34913;47.520;19.186;2023-09-19T00:40:52;99361.41;;;22.25;63.46
49102;BME280;34913;47.520;19.186;2023-09-19T00:43:19;99357.25;;;22.23;62.95
49102;BME280;34913;47.520;19.186;2023-09-19T00:45:48;99365.81;;;22.20;63.05
49102;BME280;34913;47.520;19.186;2023-09-19T00:48:15;99358.72;;;22.19;63.33
49102;BME280;34913;47.520;19.186;2023-09-19T00:50:41;99359.78;;;22.18;63.40
49102;BME280;34913;47.520;19.186;2023-09-19T00:53:09;99355.84;;;22.20;63.78
49102;BME280;34913;47.520;19.186;2023-09-19T00:55:38;99356.44;;;22.22;63.71
49102;BME280;34913;47.520;19.186;2023-09-19T00:58:04;99364.59;;;22.16;64.28
49102;BME280;34913;47.520;19.186;2023-09-19T01:00:36;99350.88;;;22.11;64.01
49102;BME280;34913;47.520;19.186;2023-09-19T01:03:02;99348.97;;;22.18;64.14
49102;BME280;34913;47.520;19.186;2023-09-19T01:05:27;99355.88;;;22.14;64.33
49102;BME280;34913;47.520;19.186;2023-09-19T01:07:53;99354.44;;;22.05;64.67
49102;BME280;34913;47.520;19.186;2023-09-19T01:10:20;99344.50;;;21.98;65.23
49102;BME280;34913;47.520;19.186;2023-09-19T01:18:53;99352.59;;;21.98;65.51
49102;BME280;34913;47.520;19.186;2023-09-19T01:24:33;99348.06;;;21.92;66.30
49102;BME280;34913;47.520;19.186;2023-09-19T01:29:42;99351.13;;;21.96;65.83
49102;BME280;34913;47.520;19.186;2023-09-19T01:32:11;99349.91;;;21.98;65.95
49102;BME280;34913;47.520;19.186;2023-09-19T01:34:53;99346.16;;;21.99;66.17
49102;BME280;34913;47.520;19.186;2023-09-19T01:37:20;99348.44;;;21.96;66.52
49102;BME280;34913;47.520;19.186;2023-09-19T01:40:06;99344.72;;;21.97;66.48
49102;BME280;34913;47.520;19.186;2023-09-19T01:42:53;99340.31;;;21.96;66.66
49102;BME280;34913;47.520;19.186;2023-09-19T01:47:55;99328.53;;;21.90;66.75
49102;BME280;34913;47.520;19.186;2023-09-19T01:50:34;99332.22;;;21.96;66.64
49102;BME280;34913;47.520;19.186;2023-09-19T01:53:26;99324.78;;;21.91;67.17
49102;BME280;34913;47.520;19.186;2023-09-19T01:55:57;99328.53;;;21.90;67.34
49102;BME280;34913;47.520;19.186;2023-09-19T01:58:46;99320.47;;;21.84;67.74
49102;BME280;34913;47.520;19.186;2023-09-19T02:01:19;99331.91;;;21.79;67.85
49102;BME280;34913;47.520;19.186;2023-09-19T02:03:45;99337.13;;;21.74;68.18
49102;BME280;34913;47.520;19.186;2023-09-19T02:06:16;99337.13;;;21.74;68.14
49102;BME280;34913;47.520;19.186;2023-09-19T02:08:42;99335.25;;;21.74;68.31
49102;BME280;34913;47.520;19.186;2023-09-19T02:11:08;99326.75;;;21.71;68.74
49102;BME280;34913;47.520;19.186;2023-09-19T02:13:33;99327.38;;;21.73;68.40
49102;BME280;34913;47.520;19.186;2023-09-19T02:15:59;99328.63;;;21.70;68.67
49102;BME280;34913;47.520;19.186;2023-09-19T02:18:25;99341.50;;;21.75;68.42
49102;BME280;34913;47.520;19.186;2023-09-19T02:20:53;99332.56;;;21.74;68.82
49102;BME280;34913;47.520;19.186;2023-09-19T02:23:18;99332.97;;;21.71;68.85
49102;BME280;34913;47.520;19.186;2023-09-19T02:25:54;99346.69;;;21.70;68.81
49102;BME280;34913;47.520;19.186;2023-09-19T02:28:20;99340.28;;;21.64;69.34
49102;BME280;34913;47.520;19.186;2023-09-19T02:30:49;99336.81;;;21.57;69.90
49102;BME280;34913;47.520;19.186;2023-09-19T02:33:15;99330.97;;;21.60;69.84
49102;BME280;34913;47.520;19.186;2023-09-19T02:35:42;99326.00;;;21.57;69.77
49102;BME280;34913;47.520;19.186;2023-09-19T02:38:08;99323.09;;;21.52;70.25
49102;BME280;34913;47.520;19.186;2023-09-19T02:40:33;99338.69;;;21.57;70.34
49102;BME280;34913;47.520;19.186;2023-09-19T02:43:01;99332.84;;;21.53;70.43
49102;BME280;34913;47.520;19.186;2023-09-19T02:45:27;99334.28;;;21.56;70.17
49102;BME280;34913;47.520;19.186;2023-09-19T02:47:53;99338.84;;;21.55;70.03
49102;BME280;34913;47.520;19.186;2023-09-19T02:50:20;99338.25;;;21.53;70.77
49102;BME280;34913;47.520;19.186;2023-09-19T02:52:46;99338.25;;;21.53;70.46
49102;BME280;34913;47.520;19.186;2023-09-19T02:55:16;99333.47;;;21.49;70.33
49102;BME280;34913;47.520;19.186;2023-09-19T02:57:49;99338.69;;;21.50;70.80
49102;BME280;34913;47.520;19.186;2023-09-19T03:00:15;99334.72;;;21.53;70.18
49102;BME280;34913;47.520;19.186;2023-09-19T03:02:41;99334.25;;;21.62;70.17
49102;BME280;34913;47.520;19.186;2023-09-19T03:05:07;99336.56;;;21.59;70.57
49102;BME280;34913;47.520;19.186;2023-09-19T03:07:33;99325.34;;;21.55;70.12
49102;BME280;34913;47.520;19.186;2023-09-19T03:09:59;99318.53;;;21.53;70.27
49102;BME280;34913;47.520;19.186;2023-09-19T03:12:26;99312.50;;;21.57;70.42
49102;BME280;34913;47.520;19.186;2023-09-19T03:14:51;99317.91;;;21.57;70.16
49102;BME280;34913;47.520;19.186;2023-09-19T03:17:17;99322.06;;;21.53;70.51
49102;BME280;34913;47.520;19.186;2023-09-19T03:19:44;99319.59;;;21.45;70.80
49102;BME280;34913;47.520;19.186;2023-09-19T03:22:10;99327.91;;;21.43;71.06
49102;BME280;34913;47.520;19.186;2023-09-19T03:24:36;99329.19;;;21.41;71.30
49102;BME280;34913;47.520;19.186;2023-09-19T03:27:03;99323.16;;;21.32;71.71
49102;BME280;34913;47.520;19.186;2023-09-19T03:29:29;99326.88;;;21.25;72.64
49102;BME280;34913;47.520;19.186;2023-09-19T03:31:54;99324.41;;;21.23;71.44
49102;BME280;34913;47.520;19.186;2023-09-19T03:34:20;99323.81;;;21.14;72.37
49102;BME280;34913;47.520;19.186;2023-09-19T03:36:46;99330.25;;;21.13;72.65
49102;BME280;34913;47.520;19.186;2023-09-19T03:39:11;99334.22;;;21.11;72.80
49102;BME280;34913;47.520;19.186;2023-09-19T03:41:37;99330.03;;;21.08;72.62
49102;BME280;34913;47.520;19.186;2023-09-19T03:44:02;99332.94;;;21.07;73.23
49102;BME280;34913;47.520;19.186;2023-09-19T03:46:28;99336.69;;;21.06;73.06
49102;BME280;34913;47.520;19.186;2023-09-19T03:48:54;99339.19;;;21.07;72.97
49102;BME280;34913;47.520;19.186;2023-09-19T03:51:20;99336.47;;;21.07;73.31
49102;BME280;34913;47.520;19.186;2023-09-19T03:53:45;99331.28;;;21.12;72.64
49102;BME280;34913;47.520;19.186;2023-09-19T03:56:11;99337.72;;;21.11;72.81
49102;BME280;34913;47.520;19.186;2023-09-19T03:58:37;99338.13;;;21.08;73.48
49102;BME280;34913;47.520;19.186;2023-09-19T04:01:05;99341.47;;;21.10;73.27
49102;BME280;34913;47.520;19.186;2023-09-19T04:03:33;99327.75;;;21.12;73.16
49102;BME280;34913;47.520;19.186;2023-09-19T04:06:15;99334.00;;;21.12;73.09
49102;BME280;34913;47.520;19.186;2023-09-19T04:08:41;99340.44;;;21.11;73.26
49102;BME280;34913;47.520;19.186;2023-09-19T04:11:07;99340.44;;;21.11;73.64
49102;BME280;34913;47.520;19.186;2023-09-19T04:13:33;99337.53;;;21.06;73.64
49102;BME280;34913;47.520;19.186;2023-09-19T04:15:58;99349.56;;;21.04;73.82
49102;BME280;34913;47.520;19.186;2023-09-19T04:18:24;99350.63;;;21.03;74.37
49102;BME280;34913;47.520;19.186;2023-09-19T04:20:50;99341.28;;;20.99;74.84
49102;BME280;34913;47.520;19.186;2023-09-19T04:23:15;99345.63;;;21.00;74.95
49102;BME280;34913;47.520;19.186;2023-09-19T04:25:42;99347.28;;;21.01;74.94
49102;BME280;34913;47.520;19.186;2023-09-19T04:28:07;99352.28;;;21.04;74.98
49102;BME280;34913;47.520;19.186;2023-09-19T04:30:34;99349.75;;;21.09;74.81
49102;BME280;34913;47.520;19.186;2023-09-19T04:32:59;99353.31;;;21.09;75.24
49102;BME280;34913;47.520;19.186;2023-09-19T04:35:28;99350.81;;;21.08;75.57
49102;BME280;34913;47.520;19.186;2023-09-19T04:37:56;99361.41;;;21.09;75.63
49102;BME280;34913;47.520;19.186;2023-09-19T04:40:22;99352.28;;;21.04;76.14
49102;BME280;34913;47.520;19.186;2023-09-19T04:42:54;99365.56;;;21.05;75.69
49102;BME280;34913;47.520;19.186;2023-09-19T04:45:26;99375.31;;;21.06;76.05
49102;BME280;34913;47.520;19.186;2023-09-19T04:47:52;99370.31;;;21.10;76.35
49102;BME280;34913;47.520;19.186;2023-09-19T04:50:17;99370.13;;;21.05;76.80
49102;BME280;34913;47.520;19.186;2023-09-19T04:52:44;99373.03;;;21.03;76.78
49102;BME280;34913;47.520;19.186;2023-09-19T04:55:17;99370.56;;;21.02;77.03
49102;BME280;34913;47.520;19.186;2023-09-19T04:57:44;99376.75;;;21.09;76.56
49102;BME280;34913;47.520;19.186;2023-09-19T05:00:15;99366.97;;;21.14;76.29
49102;BME280;34913;47.520;19.186;2023-09-19T05:02:43;99377.78;;;21.21;75.40
49102;BME280;34913;47.520;19.186;2023-09-19T05:05:09;99376.34;;;21.18;75.30
49102;BME280;34913;47.520;19.186;2023-09-19T05:07:55;99380.69;;;21.19;75.83
49102;BME280;34913;47.520;19.186;2023-09-19T05:10:20;99374.47;;;21.19;75.83
49102;BME280;34913;47.520;19.186;2023-09-19T05:12:46;99378.16;;;21.25;74.85
49102;BME280;34913;47.520;19.186;2023-09-19T05:15:13;99386.25;;;21.25;75.58
49102;BME280;34913;47.520;19.186;2023-09-19T05:17:47;99393.16;;;21.27;74.70
49102;BME280;34913;47.520;19.186;2023-09-19T05:20:13;99393.78;;;21.29;74.13
49102;BME280;34913;47.520;19.186;2023-09-19T05:22:42;99402.69;;;21.36;74.42
49102;BME280;34913;47.520;19.186;2023-09-19T05:25:11;99401.25;;;21.34;74.36
49102;BME280;34913;47.520;19.186;2023-09-19T05:27:41;99405.63;;;21.28;74.21
49102;BME280;34913;47.520;19.186;2023-09-19T05:30:07;99412.66;;;21.29;73.68
49102;BME280;34913;47.520;19.186;2023-09-19T05:32:33;99414.31;;;21.17;74.33
49102;BME280;34913;47.520;19.186;2023-09-19T05:34:58;99427.00;;;21.03;75.44
49102;BME280;34913;47.520;19.186;2023-09-19T05:37:24;99424.50;;;20.95;75.98
49102;BME280;34913;47.520;19.186;2023-09-19T05:39:51;99419.50;;;20.99;75.54
49102;BME280;34913;47.520;19.186;2023-09-19T05:42:18;99434.03;;;20.91;76.51
49102;BME280;34913;47.520;19.186;2023-09-19T05:44:43;99432.56;;;20.75;77.25
49102;BME280;34913;47.520;19.186;2023-09-19T05:47:09;99431.34;;;20.65;78.53
49102;BME280;34913;47.520;19.186;2023-09-19T05:49:37;99431.13;;;20.66;77.21
49102;BME280;34913;47.520;19.186;2023-09-19T05:52:07;99430.72;;;20.62;77.57
49102;BME280;34913;47.520;19.186;2023-09-19T05:54:32;99427.19;;;20.55;77.73
49102;BME280;34913;47.520;19.186;2023-09-19T05:57:00;99423.19;;;20.45;78.69
49102;BME280;34913;47.520;19.186;2023-09-19T05:59:25;99437.06;;;20.42;79.37
49102;BME280;34913;47.520;19.186;2023-09-19T06:01:51;99429.84;;;20.49;78.81
49102;BME280;34913;47.520;19.186;2023-09-19T06:04:17;99446.88;;;20.56;77.51
49102;BME280;34913;47.520;19.186;2023-09-19T06:06:44;99453.09;;;20.50;77.72
49102;BME280;34913;47.520;19.186;2023-09-19T06:09:10;99451.63;;;20.47;77.94
49102;BME280;34913;47.520;19.186;2023-09-19T06:11:35;99452.63;;;20.40;78.86
49102;BME280;34913;47.520;19.186;2023-09-19T06:14:02;99451.38;;;20.42;78.70
49102;BME280;34913;47.520;19.186;2023-09-19T06:16:31;99459.03;;;20.32;79.30
49102;BME280;34913;47.520;19.186;2023-09-19T06:18:59;99463.75;;;20.30;78.67
49102;BME280;34913;47.520;19.186;2023-09-19T06:21:28;99457.94;;;20.20;79.64
49102;BME280;34913;47.520;19.186;2023-09-19T06:23:53;99468.28;;;20.16;79.44
49102;BME280;34913;47.520;19.186;2023-09-19T06:26:19;99467.06;;;20.19;79.84
49102;BME280;34913;47.520;19.186;2023-09-19T06:28:44;99465.41;;;20.18;79.77
49102;BME280;34913;47.520;19.186;2023-09-19T06:31:10;99471.38;;;20.06;79.62
49102;BME280;34913;47.520;19.186;2023-09-19T06:33:38;99474.69;;;20.08;79.71
49102;BME280;34913;47.520;19.186;2023-09-19T06:36:07;99481.13;;;20.14;79.56
49102;BME280;34913;47.520;19.186;2023-09-19T06:38:33;99474.25;;;20.05;80.15
49102;BME280;34913;47.520;19.186;2023-09-19T06:41:02;99476.75;;;20.06;80.30
49102;BME280;34913;47.520;19.186;2023-09-19T06:43:32;99491.41;;;19.91;81.26
49102;BME280;34913;47.520;19.186;2023-09-19T06:45:59;99488.09;;;19.95;81.44
49102;BME280;34913;47.520;19.186;2023-09-19T06:48:25;99489.72;;;19.90;82.28
49102;BME280;34913;47.520;19.186;2023-09-19T06:50:53;99490.31;;;19.85;82.21
49102;BME280;34913;47.520;19.186;2023-09-19T06:53:18;99494.91;;;19.91;82.49
49102;BME280;34913;47.520;19.186;2023-09-19T06:55:44;99490.75;;;19.89;82.47
49102;BME280;34913;47.520;19.186;2023-09-19T06:58:10;99507.94;;;19.88;83.19
49102;BME280;34913;47.520;19.186;2023-09-19T07:00:36;99499.19;;;19.79;84.52
49102;BME280;34913;47.520;19.186;2023-09-19T07:05:30;99500.41;;;19.48;86.46
49102;BME280;34913;47.520;19.186;2023-09-19T07:07:57;99512.47;;;19.52;87.72
49102;BME280;34913;47.520;19.186;2023-09-19T07:10:26;99515.31;;;19.51;87.31
49102;BME280;34913;47.520;19.186;2023-09-19T07:12:59;99519.19;;;19.42;89.57
49102;BME280;34913;47.520;19.186;2023-09-19T07:15:25;99532.59;;;19.35;89.51
49102;BME280;34913;47.520;19.186;2023-09-19T07:17:52;99526.22;;;19.36;89.17
49102;BME280;34913;47.520;19.186;2023-09-19T07:20:19;99534.03;;;19.31;89.79
49102;BME280;34913;47.520;19.186;2023-09-19T07:22:45;99540.28;;;19.38;88.94
49102;BME280;34913;47.520;19.186;2023-09-19T07:25:10;99549.13;;;19.32;89.76
49102;BME280;34913;47.520;19.186;2023-09-19T07:27:36;99546.03;;;19.29;89.62
49102;BME280;34913;47.520;19.186;2023-09-19T07:30:01;99551.56;;;19.27;91.53
49102;BME280;34913;47.520;19.186;2023-09-19T07:32:26;99547.75;;;19.36;91.32
49102;BME280;34913;47.520;19.186;2023-09-19T07:34:52;99555.91;;;19.49;89.81
49102;BME280;34913;47.520;19.186;2023-09-19T07:37:18;99548.44;;;19.45;91.21
49102;BME280;34913;47.520;19.186;2023-09-19T07:39:43;99554.84;;;19.44;90.49
49102;BME280;34913;47.520;19.186;2023-09-19T07:42:10;99556.88;;;19.42;92.82
49102;BME280;34913;47.520;19.186;2023-09-19T07:44:36;99561.81;;;19.38;93.82
49102;BME280;34913;47.520;19.186;2023-09-19T07:47:02;99569.63;;;19.33;93.65
49102;BME280;34913;47.520;19.186;2023-09-19T07:49:28;99569.16;;;19.23;94.24
49102;BME280;34913;47.520;19.186;2023-09-19T07:51:54;99568.44;;;19.14;94.95
49102;BME280;34913;47.520;19.186;2023-09-19T07:54:20;99581.25;;;19.12;96.32
49102;BME280;34913;47.520;19.186;2023-09-19T07:56:46;99581.56;;;19.03;97.95
49102;BME280;34913;47.520;19.186;2023-09-19T07:59:12;99582.09;;;19.13;96.88
49102;BME280;34913;47.520;19.186;2023-09-19T08:01:39;99582.44;;;19.10;97.39
49102;BME280;34913;47.520;19.186;2023-09-19T08:04:07;99575.06;;;19.12;98.53
49102;BME280;34913;47.520;19.186;2023-09-19T08:06:32;99578.31;;;19.07;100.00
49102;BME280;34913;47.520;19.186;2023-09-19T08:08:57;99579.34;;;19.06;100.00
49102;BME280;34913;47.520;19.186;2023-09-19T08:11:23;99581.81;;;19.08;100.00
49102;BME280;34913;47.520;19.186;2023-09-19T08:13:49;99584.59;;;19.14;100.00
49102;BME280;34913;47.520;19.186;2023-09-19T08:16:16;99584.19;;;19.17;100.00
49102;BME280;34913;47.520;19.186;2023-09-19T08:18:47;99597.44;;;19.19;100.00
49102;BME280;34913;47.520;19.186;2023-09-19T08:21:12;99595.59;;;19.19;100.00
49102;BME280;34913;47.520;19.186;2023-09-19T08:23:40;99604.75;;;19.25;100.00
49102;BME280;34913;47.520;19.186;2023-09-19T08:26:06;99611.44;;;19.29;100.00
49102;BME280;34913;47.520;19.186;2023-09-19T08:28:35;99606.03;;;19.29;100.00
49102;BME280;34913;47.520;19.186;2023-09-19T08:31:04;99603.16;;;19.31;100.00
49102;BME280;34913;47.520;19.186;2023-09-19T08:33:34;99611.66;;;19.34;100.00
49102;BME280;34913;47.520;19.186;2023-09-19T08:36:01;99614.00;;;19.37;100.00
49102;BME280;34913;47.520;19.186;2023-09-19T08:38:31;99619.56;;;19.36;99.34
49102;BME280;34913;47.520;19.186;2023-09-19T08:40:59;99619.19;;;19.39;98.38
49102;BME280;34913;47.520;19.186;2023-09-19T08:43:25;99632.28;;;19.27;99.50
49102;BME280;34913;47.520;19.186;2023-09-19T08:45:58;99628.00;;;19.11;98.76
49102;BME280;34913;47.520;19.186;2023-09-19T08:48:29;99638.81;;;19.18;98.83
49102;BME280;34913;47.520;19.186;2023-09-19T08:53:42;99648.69;;;19.11;98.95
49102;BME280;34913;47.520;19.186;2023-09-19T08:56:13;99659.06;;;19.14;98.87
49102;BME280;34913;47.520;19.186;2023-09-19T08:59:05;99667.16;;;19.14;99.34
49102;BME280;34913;47.520;19.186;2023-09-19T09:01:35;99670.88;;;19.13;100.00
49102;BME280;34913;47.520;19.186;2023-09-19T09:04:01;99683.53;;;19.19;100.00
49102;BME280;34913;47.520;19.186;2023-09-19T09:06:28;99690.88;;;19.10;100.00
49102;BME280;34913;47.520;19.186;2023-09-19T09:08:54;99678.09;;;19.12;100.00
49102;BME280;34913;47.520;19.186;2023-09-19T09:11:20;99682.25;;;19.15;99.24
49102;BME280;34913;47.520;19.186;2023-09-19T09:13:46;99683.53;;;19.19;100.00
49102;BME280;34913;47.520;19.186;2023-09-19T09:16:13;99671.94;;;19.18;99.30
49102;BME280;34913;47.520;19.186;2023-09-19T09:18:39;99678.00;;;19.20;100.00
49102;BME280;34913;47.520;19.186;2023-09-19T09:21:05;99663.75;;;19.27;100.00
49102;BME280;34913;47.520;19.186;2023-09-19T09:23:31;99658.06;;;19.36;99.83
49102;BME280;34913;47.520;19.186;2023-09-19T09:26:00;99633.47;;;19.39;98.99
49102;BME280;34913;47.520;19.186;2023-09-19T09:28:29;99632.19;;;19.57;98.72
49102;BME280;34913;47.520;19.186;2023-09-19T09:30:56;99627.19;;;19.75;98.38
49102;BME280;34913;47.520;19.186;2023-09-19T09:33:23;99633.28;;;19.90;96.74
49102;BME280;34913;47.520;19.186;2023-09-19T09:35:53;99627.44;;;20.08;99.49
49102;BME280;34913;47.520;19.186;2023-09-19T09:38:26;99613.16;;;20.14;97.13
49102;BME280;34913;47.520;19.186;2023-09-19T09:40:58;99604.94;;;20.22;97.62
49102;BME280;34913;47.520;19.186;2023-09-19T09:43:35;99598.41;;;20.45;96.03
49102;BME280;34913;47.520;19.186;2023-09-19T09:46:07;99593.31;;;20.56;94.61
49102;BME280;34913;47.520;19.186;2023-09-19T09:49:03;99602.00;;;20.58;94.34
49102;BME280;34913;47.520;19.186;2023-09-19T09:52:10;99609.31;;;20.65;93.88
49102;BME280;34913;47.520;19.186;2023-09-19T09:54:59;99605.34;;;20.54;96.78
49102;BME280;34913;47.520;19.186;2023-09-19T09:57:26;99620.66;;;20.53;96.41
49102;BME280;34913;47.520;19.186;2023-09-19T09:59:58;99641.09;;;20.41;95.75
49102;BME280;34913;47.520;19.186;2023-09-19T10:02:40;99655.13;;;20.30;96.49
49102;BME280;34913;47.520;19.186;2023-09-19T10:05:14;99657.47;;;20.40;98.42
49102;BME280;34913;47.520;19.186;2023-09-19T10:07:55;99663.06;;;20.38;94.91
49102;BME280;34913;47.520;19.186;2023-09-19T10:10:32;99646.66;;;20.33;98.54
49102;BME280;34913;47.520;19.186;2023-09-19T10:13:10;99644.06;;;20.18;97.78
49102;BME280;34913;47.520;19.186;2023-09-19T10:15:44;99645.16;;;20.24;99.78
49102;BME280;34913;47.520;19.186;2023-09-19T10:18:25;99649.19;;;20.41;95.47
49102;BME280;34913;47.520;19.186;2023-09-19T10:20:52;99656.13;;;20.50;93.49
49102;BME280;34913;47.520;19.186;2023-09-19T10:23:19;99652.84;;;20.61;96.31
49102;BME280;34913;47.520;19.186;2023-09-19T10:25:49;99650.38;;;20.67;91.11
49102;BME280;34913;47.520;19.186;2023-09-19T10:28:17;99648.56;;;20.74;91.69
49102;BME280;34913;47.520;19.186;2023-09-19T10:30:48;99643.56;;;20.71;93.04
49102;BME280;34913;47.520;19.186;2023-09-19T10:33:17;99646.06;;;20.72;90.75
49102;BME280;34913;47.520;19.186;2023-09-19T10:35:45;99654.34;;;20.71;88.94
49102;BME280;34913;47.520;19.186;2023-09-19T10:38:12;99653.91;;;20.67;92.15
49102;BME280;34913;47.520;19.186;2023-09-19T10:40:39;99667.63;;;20.72;91.30
49102;BME280;34913;47.520;19.186;2023-09-19T10:43:19;99670.97;;;20.74;92.39
49102;BME280;34913;47.520;19.186;2023-09-19T10:45:47;99666.44;;;20.81;90.00
49102;BME280;34913;47.520;19.186;2023-09-19T10:48:15;99666.84;;;20.78;91.15
49102;BME280;34913;47.520;19.186;2023-09-19T10:51:04;99666.00;;;20.78;86.91
49102;BME280;34913;47.520;19.186;2023-09-19T10:54:02;99672.84;;;20.80;88.10
49102;BME280;34913;47.520;19.186;2023-09-19T10:56:36;99669.28;;;20.73;90.33
49102;BME280;34913;47.520;19.186;2023-09-19T10:59:09;99673.25;;;20.77;89.70
49102;BME280;34913;47.520;19.186;2023-09-19T11:01:55;99669.28;;;20.73;88.29
49102;BME280;34913;47.520;19.186;2023-09-19T11:04:32;99665.59;;;20.81;90.73
49102;BME280;34913;47.520;19.186;2023-09-19T11:07:16;99673.09;;;20.85;90.72
49102;BME280;34913;47.520;19.186;2023-09-19T11:09:52;99670.56;;;20.84;88.78
49102;BME280;34913;47.520;19.186;2023-09-19T11:15:08;99670.63;;;20.90;85.95
49102;BME280;34913;47.520;19.186;2023-09-19T11:17:36;99681.22;;;20.99;87.63
49102;BME280;34913;47.520;19.186;2023-09-19T11:30:44;99681.22;;;21.60;83.25
49102;BME280;34913;47.520;19.186;2023-09-19T11:36:16;99689.75;;;21.77;80.58
49102;BME280;34913;47.520;19.186;2023-09-19T11:43:47;99689.34;;;21.93;76.23
49102;BME280;34913;47.520;19.186;2023-09-19T11:46:13;99674.81;;;22.14;75.45
49102;BME280;34913;47.520;19.186;2023-09-19T11:48:43;99685.56;;;22.60;76.07
49102;BME280;34913;47.520;19.186;2023-09-19T11:51:14;99676.31;;;22.81;73.67
49102;BME280;34913;47.520;19.186;2023-09-19T11:53:49;99688.59;;;22.83;71.08
49102;BME280;34913;47.520;19.186;2023-09-19T11:56:22;99681.94;;;22.93;72.69
49102;BME280;34913;47.520;19.186;2023-09-19T11:58:53;99678.19;;;22.74;70.69
49102;BME280;34913;47.520;19.186;2023-09-19T12:01:32;99671.38;;;22.65;71.71
49102;BME280;34913;47.520;19.186;2023-09-19T12:04:03;99672.53;;;22.95;71.62
49102;BME280;34913;47.520;19.186;2023-09-19T12:06:30;99668.28;;;23.12;71.08
49102;BME280;34913;47.520;19.186;2023-09-19T12:08:57;99667.06;;;23.08;70.15
49102;BME280;34913;47.520;19.186;2023-09-19T12:11:30;99667.34;;;22.94;69.36
49102;BME280;34913;47.520;19.186;2023-09-19T12:13:59;99671.28;;;22.98;68.31
49102;BME280;34913;47.520;19.186;2023-09-19T12:16:26;99678.47;;;23.17;68.96
49102;BME280;34913;47.520;19.186;2023-09-19T12:18:56;99673.59;;;22.94;69.52
49102;BME280;34913;47.520;19.186;2023-09-19T12:21:32;99685.69;;;22.92;71.26
49102;BME280;34913;47.520;19.186;2023-09-19T12:24:04;99676.09;;;22.89;68.84
49102;BME280;34913;47.520;19.186;2023-09-19T12:26:36;99685.59;;;23.05;70.40
49102;BME280;34913;47.520;19.186;2023-09-19T12:29:03;99682.56;;;23.33;69.68
49102;BME280;34913;47.520;19.186;2023-09-19T12:31:30;99685.00;;;23.41;67.91
49102;BME280;34913;47.520;19.186;2023-09-19T12:34:01;99692.09;;;23.42;68.05
49102;BME280;34913;47.520;19.186;2023-09-19T12:36:26;99694.09;;;23.60;67.23
49102;BME280;34913;47.520;19.186;2023-09-19T12:38:56;99692.22;;;23.85;67.94
49102;BME280;34913;47.520;19.186;2023-09-19T12:41:24;99690.78;;;24.08;66.47
49102;BME280;34913;47.520;19.186;2023-09-19T12:43:52;99691.06;;;24.00;67.61
49102;BME280;34913;47.520;19.186;2023-09-19T12:46:21;99683.94;;;23.80;66.14
49102;BME280;34913;47.520;19.186;2023-09-19T12:49:13;99697.63;;;23.60;67.46
49102;BME280;34913;47.520;19.186;2023-09-19T12:51:38;99696.25;;;23.38;68.36
49102;BME280;34913;47.520;19.186;2023-09-19T12:54:04;99708.00;;;23.25;69.08
49102;BME280;34913;47.520;19.186;2023-09-19T12:56:39;99699.91;;;23.25;70.06
49102;BME280;34913;47.520;19.186;2023-09-19T12:59:09;99702.09;;;23.42;71.03
49102;BME280;34913;47.520;19.186;2023-09-19T13:01:39;99704.66;;;23.68;69.05
49102;BME280;34913;47.520;19.186;2023-09-19T13:06:48;99700.19;;;23.80;66.77
49102;BME280;34913;47.520;19.186;2023-09-19T13:09:14;99706.22;;;23.82;64.94
49102;BME280;34913;47.520;19.186;2023-09-19T13:11:41;99705.28;;;23.70;63.88
49102;BME280;34913;47.520;19.186;2023-09-19T13:22:43;99695.69;;;23.67;64.89
49102;BME280;34913;47.520;19.186;2023-09-19T13:25:14;99690.94;;;23.63;64.81
49102;BME280;34913;47.520;19.186;2023-09-19T13:27:44;99687.53;;;23.74;65.93
49102;BME280;34913;47.520;19.186;2023-09-19T13:30:10;99684.94;;;23.86;64.66
49102;BME280;34913;47.520;19.186;2023-09-19T13:32:36;99685.16;;;23.84;64.39
49102;BME280;34913;47.520;19.186;2023-09-19T13:35:04;99696.44;;;23.81;64.22
49102;BME280;34913;47.520;19.186;2023-09-19T13:37:30;99704.22;;;23.71;65.14
49102;BME280;34913;47.520;19.186;2023-09-19T13:39:56;99698.41;;;23.67;64.31
49102;BME280;34913;47.520;19.186;2023-09-19T13:42:24;99697.81;;;23.59;65.10
49102;BME280;34913;47.520;19.186;2023-09-19T13:44:50;99691.47;;;23.40;65.91
49102;BME280;34913;47.520;19.186;2023-09-19T13:47:16;99712.50;;;23.38;66.16
49102;BME280;34913;47.520;19.186;2023-09-19T13:49:42;99708.97;;;23.37;66.34
49102;BME280;34913;47.520;19.186;2023-09-19T13:52:08;99708.16;;;23.37;66.24